createdAt,value
2019-04-30T00:00:38.258Z,8.22
2019-04-30T00:03:57.821Z,8.22
2019-04-30T00:06:57.814Z,8.05
2019-04-30T00:10:03.305Z,7.98
2019-04-30T00:13:10.417Z,7.83
2019-04-30T00:16:15.723Z,7.76
2019-04-30T00:19:21.005Z,7.68
2019-04-30T00:22:33.911Z,7.50
2019-04-30T00:25:35.049Z,7.56
2019-04-30T00:28:46.226Z,7.64
2019-04-30T00:31:47.531Z,7.78
2019-04-30T00:34:52.958Z,7.91
2019-04-30T00:38:06.088Z,7.99
2019-04-30T00:41:11.498Z,8.15
2019-04-30T00:44:19.833Z,8.14
2019-04-30T00:47:25.254Z,8.18
2019-04-30T00:50:33.944Z,8.07
2019-04-30T00:53:38.960Z,7.97
2019-04-30T00:56:45.571Z,7.87
2019-04-30T00:59:51.083Z,7.73
2019-04-30T01:03:05.871Z,7.65
2019-04-30T01:06:11.853Z,7.53
2019-04-30T01:09:17.174Z,7.45
2019-04-30T01:12:27.497Z,7.41
2019-04-30T01:15:32.657Z,7.39
2019-04-30T01:18:38.994Z,7.33
2019-04-30T01:21:47.004Z,7.37
2019-04-30T01:24:51.665Z,7.39
2019-04-30T01:27:58.581Z,7.48
2019-04-30T01:31:04.018Z,7.49
2019-04-30T01:34:12.422Z,7.55
2019-04-30T01:37:16.409Z,7.63
2019-04-30T01:40:21.743Z,7.70
2019-04-30T01:43:33.053Z,7.76
2019-04-30T01:46:34.106Z,7.68
2019-04-30T01:49:44.749Z,7.65
2019-04-30T01:52:55.391Z,7.83
2019-04-30T01:56:22.419Z,7.85
2019-04-30T01:59:49.895Z,7.78
2019-04-30T02:02:55.299Z,7.73
2019-04-30T02:06:00.704Z,7.82
2019-04-30T02:09:08.993Z,7.83
2019-04-30T02:12:14.145Z,7.79
2019-04-30T02:15:19.557Z,7.77
2019-04-30T02:18:24.950Z,7.90
2019-04-30T02:21:33.105Z,7.76
2019-04-30T02:24:38.691Z,8.01
2019-04-30T02:27:44.147Z,7.89
2019-04-30T02:30:50.430Z,7.86
2019-04-30T02:34:04.998Z,7.87
2019-04-30T02:37:14.335Z,7.89
2019-04-30T02:40:21.885Z,7.77
2019-04-30T02:43:30.152Z,7.77
2019-04-30T02:46:40.509Z,7.81
2019-04-30T02:49:46.149Z,8.00
2019-04-30T02:52:53.124Z,7.96
2019-04-30T02:55:59.493Z,7.98
2019-04-30T02:59:05.543Z,7.84
2019-04-30T03:02:13.657Z,7.81
2019-04-30T03:05:20.233Z,7.75
2019-04-30T03:08:25.935Z,7.67
2019-04-30T03:11:31.233Z,7.71
2019-04-30T03:14:36.638Z,7.71
2019-04-30T03:18:03.605Z,7.69
2019-04-30T03:21:13.213Z,7.76
2019-04-30T03:24:20.205Z,7.68
2019-04-30T03:27:25.471Z,7.61
2019-04-30T03:30:32.185Z,7.62
2019-04-30T03:33:42.375Z,7.61
2019-04-30T03:36:46.472Z,7.62
2019-04-30T03:39:51.718Z,7.70
2019-04-30T03:42:59.743Z,7.60
2019-04-30T03:46:04.138Z,7.59
2019-04-30T03:49:12.444Z,7.47
2019-04-30T03:52:19.491Z,7.41
2019-04-30T03:55:24.939Z,7.39
2019-04-30T03:58:30.440Z,7.49
2019-04-30T04:01:51.278Z,7.53
2019-04-30T04:05:05.951Z,7.41
2019-04-30T04:08:45.377Z,7.54
2019-04-30T04:11:51.053Z,7.54
2019-04-30T04:14:56.608Z,7.50
2019-04-30T04:18:02.017Z,7.45
2019-04-30T04:21:13.028Z,7.52
2019-04-30T04:24:14.559Z,7.53
2019-04-30T04:27:19.937Z,7.46
2019-04-30T04:30:25.318Z,7.55
2019-04-30T04:33:32.099Z,7.53
2019-04-30T04:36:39.929Z,7.59
2019-04-30T04:39:44.468Z,7.62
2019-04-30T04:42:49.743Z,7.53
2019-04-30T04:45:55.185Z,7.47
2019-04-30T04:49:00.953Z,7.48
2019-04-30T04:52:07.148Z,7.52
2019-04-30T04:55:14.160Z,7.57
2019-04-30T04:58:21.590Z,7.58
2019-04-30T05:01:28.778Z,7.67
2019-04-30T05:04:33.524Z,7.61
2019-04-30T05:07:39.914Z,7.60
2019-04-30T05:10:45.553Z,7.53
2019-04-30T05:13:51.461Z,7.43
2019-04-30T05:16:58.609Z,7.54
2019-04-30T05:20:03.961Z,7.65
2019-04-30T05:23:10.509Z,7.61
2019-04-30T05:26:15.768Z,7.60
2019-04-30T05:29:20.999Z,7.60
2019-04-30T05:32:26.270Z,7.59
2019-04-30T05:35:31.563Z,7.69
2019-04-30T05:38:39.114Z,7.71
2019-04-30T05:41:45.552Z,7.61
2019-04-30T05:44:52.583Z,7.70
2019-04-30T05:47:58.756Z,7.73
2019-04-30T05:51:05.077Z,7.73
2019-04-30T05:54:10.469Z,7.82
2019-04-30T05:57:15.817Z,7.98
2019-04-30T06:00:21.368Z,7.78
2019-04-30T06:03:30.733Z,8.00
2019-04-30T06:06:33.750Z,7.99
2019-04-30T06:09:51.717Z,8.30
2019-04-30T06:13:00.551Z,8.16
2019-04-30T06:16:11.931Z,8.32
2019-04-30T06:19:17.302Z,8.29
2019-04-30T06:22:23.321Z,8.28
2019-04-30T06:25:37.238Z,8.44
2019-04-30T06:28:36.111Z,8.47
2019-04-30T06:31:43.238Z,8.60
2019-04-30T06:34:49.766Z,8.78
2019-04-30T06:37:55.374Z,8.68
2019-04-30T06:41:00.812Z,8.38
2019-04-30T06:44:09.831Z,8.60
2019-04-30T06:47:15.496Z,8.64
2019-04-30T06:50:20.811Z,8.85
2019-04-30T06:53:43.057Z,9.14
2019-04-30T06:56:48.967Z,9.06
2019-04-30T06:59:55.277Z,9.02
2019-04-30T07:03:02.863Z,9.16
2019-04-30T07:06:08.454Z,8.97
2019-04-30T07:09:26.708Z,9.18
2019-04-30T07:12:50.007Z,9.21
2019-04-30T07:15:56.369Z,9.34
2019-04-30T07:19:01.673Z,9.80
2019-04-30T07:22:08.975Z,9.97
2019-04-30T07:25:14.141Z,9.94
2019-04-30T07:28:19.426Z,10.09
2019-04-30T07:31:24.807Z,10.11
2019-04-30T07:34:36.643Z,9.78
2019-04-30T07:37:39.079Z,10.06
2019-04-30T07:40:44.228Z,10.26
2019-04-30T07:43:51.812Z,10.55
2019-04-30T07:46:59.375Z,10.53
2019-04-30T07:50:05.376Z,10.08
2019-04-30T07:53:12.612Z,10.50
2019-04-30T07:56:25.692Z,10.59
2019-04-30T07:59:30.205Z,10.55
2019-04-30T08:02:43.565Z,11.27
2019-04-30T08:05:49.576Z,11.03
2019-04-30T08:08:57.620Z,11.08
2019-04-30T08:12:01.466Z,11.09
2019-04-30T08:15:09.562Z,10.57
2019-04-30T08:18:14.526Z,10.93
2019-04-30T08:21:22.217Z,10.54
2019-04-30T08:24:29.211Z,11.32
2019-04-30T08:27:34.586Z,10.97
2019-04-30T08:30:39.851Z,10.87
2019-04-30T08:33:45.187Z,11.29
2019-04-30T08:36:51.473Z,11.13
2019-04-30T08:39:56.986Z,11.45
2019-04-30T08:43:02.329Z,12.16
2019-04-30T08:46:09.442Z,12.17
2019-04-30T08:49:14.993Z,12.65
2019-04-30T08:52:22.718Z,12.52
2019-04-30T08:55:30.344Z,12.58
2019-04-30T08:58:35.228Z,12.37
2019-04-30T09:01:40.581Z,12.18
2019-04-30T09:04:46.666Z,12.42
2019-04-30T09:07:52.012Z,12.60
2019-04-30T09:10:59.369Z,13.54
2019-04-30T09:14:04.461Z,13.67
2019-04-30T09:17:09.786Z,13.88
2019-04-30T09:20:15.127Z,13.68
2019-04-30T09:23:20.418Z,13.51
2019-04-30T09:26:25.689Z,14.19
2019-04-30T09:29:31.099Z,13.96
2019-04-30T09:32:36.392Z,13.69
2019-04-30T09:35:41.656Z,13.75
2019-04-30T09:38:48.584Z,13.76
2019-04-30T09:41:54.128Z,14.00
2019-04-30T09:44:59.722Z,14.05
2019-04-30T09:48:05.124Z,13.27
2019-04-30T09:51:11.085Z,12.86
2019-04-30T09:54:19.030Z,12.77
2019-04-30T09:57:23.772Z,12.72
2019-04-30T10:00:30.390Z,12.63
2019-04-30T10:03:36.453Z,12.86
2019-04-30T10:06:42.618Z,13.26
2019-04-30T10:09:50.632Z,13.40
2019-04-30T10:12:54.991Z,13.37
2019-04-30T10:16:09.825Z,13.04
2019-04-30T10:19:19.143Z,13.02
2019-04-30T10:22:24.660Z,13.08
2019-04-30T10:25:31.299Z,12.92
2019-04-30T10:28:40.006Z,13.05
2019-04-30T10:31:45.386Z,12.80
2019-04-30T10:34:52.347Z,13.26
2019-04-30T10:37:59.951Z,13.27
2019-04-30T10:41:05.737Z,13.31
2019-04-30T10:44:11.042Z,13.17
2019-04-30T10:47:16.565Z,13.22
2019-04-30T10:50:24.802Z,13.21
2019-04-30T10:53:30.207Z,13.27
2019-04-30T10:56:35.747Z,13.38
2019-04-30T10:59:42.425Z,13.51
2019-04-30T11:02:49.469Z,13.27
2019-04-30T11:05:54.683Z,13.34
2019-04-30T11:09:00.137Z,13.25
2019-04-30T11:12:13.253Z,13.52
2019-04-30T11:15:20.599Z,13.79
2019-04-30T11:18:25.775Z,13.79
2019-04-30T11:21:31.348Z,13.89
2019-04-30T11:24:53.391Z,13.81
2019-04-30T11:27:44.338Z,13.91
2019-04-30T11:30:51.905Z,14.09
2019-04-30T11:33:59.735Z,13.99
2019-04-30T11:37:05.092Z,14.17
2019-04-30T11:40:11.497Z,14.27
2019-04-30T11:43:18.242Z,14.34
2019-04-30T11:47:04.953Z,14.43
2019-04-30T11:50:16.076Z,14.39
2019-04-30T11:53:27.561Z,14.56
2019-04-30T11:56:28.548Z,14.72
2019-04-30T11:59:34.075Z,14.69
2019-04-30T12:02:42.952Z,14.57
2019-04-30T12:05:49.040Z,14.74
2019-04-30T12:09:26.098Z,14.77
2019-04-30T12:12:31.465Z,15.09
2019-04-30T12:15:37.197Z,15.22
2019-04-30T12:18:42.587Z,15.18
2019-04-30T12:21:48.004Z,15.06
2019-04-30T12:25:02.610Z,15.24
2019-04-30T12:28:04.831Z,15.18
2019-04-30T12:31:10.216Z,15.18
2019-04-30T12:34:15.843Z,15.26
2019-04-30T12:37:21.250Z,15.33
2019-04-30T12:40:31.714Z,15.43
2019-04-30T12:43:33.715Z,15.34
2019-04-30T12:46:40.409Z,15.46
2019-04-30T12:50:09.566Z,15.54
2019-04-30T12:53:25.637Z,15.46
2019-04-30T12:56:39.630Z,15.62
2019-04-30T12:59:44.936Z,15.57
2019-04-30T13:02:51.811Z,15.58
2019-04-30T13:05:58.415Z,15.71
2019-04-30T13:09:05.812Z,15.89
2019-04-30T13:12:13.341Z,16.06
2019-04-30T13:15:19.031Z,16.22
2019-04-30T13:18:24.277Z,16.07
2019-04-30T13:21:29.566Z,16.19
2019-04-30T13:24:35.037Z,16.21
2019-04-30T13:27:43.519Z,16.26
2019-04-30T13:30:49.439Z,16.21
2019-04-30T13:34:01.528Z,16.25
2019-04-30T13:37:09.275Z,16.42
2019-04-30T13:40:39.049Z,16.51
2019-04-30T13:44:09.500Z,16.44
2019-04-30T13:47:16.537Z,16.61
2019-04-30T13:50:21.725Z,16.51
2019-04-30T13:53:28.452Z,16.40
2019-04-30T13:56:34.148Z,16.44
2019-04-30T13:59:40.565Z,16.31
2019-04-30T14:02:51.591Z,16.44
2019-04-30T14:05:59.327Z,16.48
2019-04-30T14:09:12.057Z,16.62
2019-04-30T14:12:17.582Z,16.69
2019-04-30T14:15:23.781Z,16.86
2019-04-30T14:18:33.763Z,16.70
2019-04-30T14:21:36.532Z,16.93
2019-04-30T14:24:42.269Z,16.88
2019-04-30T14:27:51.769Z,17.00
2019-04-30T14:30:55.139Z,17.07
2019-04-30T14:34:00.480Z,16.98
2019-04-30T14:37:05.821Z,16.96
2019-04-30T14:40:13.022Z,17.01
2019-04-30T14:43:50.967Z,16.85
2019-04-30T14:47:11.651Z,16.81
2019-04-30T14:50:19.500Z,16.75
2019-04-30T14:53:40.277Z,16.95
2019-04-30T14:57:08.655Z,16.86
2019-04-30T15:00:43.056Z,17.00
2019-04-30T15:03:49.623Z,17.09
2019-04-30T15:06:54.924Z,17.10
2019-04-30T15:10:00.121Z,16.93
2019-04-30T15:13:06.336Z,17.20
2019-04-30T15:16:11.804Z,17.08
2019-04-30T15:19:17.150Z,17.14
2019-04-30T15:22:22.589Z,17.08
2019-04-30T15:25:34.029Z,17.00
2019-04-30T15:28:34.833Z,17.20
2019-04-30T15:31:42.535Z,17.31
2019-04-30T15:34:48.936Z,17.26
2019-04-30T15:37:56.156Z,17.25
2019-04-30T15:41:01.867Z,17.38
2019-04-30T15:44:10.101Z,16.99
2019-04-30T15:47:15.656Z,17.06
2019-04-30T15:50:21.149Z,17.26
2019-04-30T15:53:26.594Z,17.21
2019-04-30T15:56:37.092Z,17.11
2019-04-30T15:59:42.905Z,16.91
2019-04-30T16:03:00.215Z,17.16
2019-04-30T16:06:05.599Z,17.08
2019-04-30T16:09:13.741Z,17.14
2019-04-30T16:12:42.219Z,17.24
2019-04-30T16:15:49.156Z,17.34
2019-04-30T16:18:58.844Z,17.21
2019-04-30T16:22:04.626Z,17.06
2019-04-30T16:25:30.461Z,16.91
2019-04-30T16:28:35.980Z,17.09
2019-04-30T16:31:41.302Z,17.22
2019-04-30T16:34:49.829Z,17.20
2019-04-30T16:38:53.536Z,16.87
2019-04-30T16:41:59.244Z,16.65
2019-04-30T16:45:04.885Z,16.62
2019-04-30T16:48:12.012Z,16.57
2019-04-30T16:51:18.676Z,16.58
2019-04-30T16:54:25.194Z,16.50
2019-04-30T16:57:31.679Z,16.47
2019-04-30T17:00:39.054Z,16.50
2019-04-30T17:03:45.514Z,16.42
2019-04-30T17:06:58.752Z,16.34
2019-04-30T17:10:13.471Z,16.33
2019-04-30T17:13:43.742Z,16.20
2019-04-30T17:16:49.406Z,16.22
2019-04-30T17:19:54.712Z,16.25
2019-04-30T17:23:00.001Z,16.22
2019-04-30T17:26:05.397Z,16.22
2019-04-30T17:29:10.716Z,16.18
2019-04-30T17:32:16.220Z,16.14
2019-04-30T17:35:21.523Z,16.22
2019-04-30T17:38:26.639Z,16.17
2019-04-30T17:41:31.934Z,16.18
2019-04-30T17:44:37.071Z,16.05
2019-04-30T17:47:42.293Z,16.05
2019-04-30T17:50:49.643Z,16.11
2019-04-30T17:54:15.968Z,16.02
2019-04-30T17:57:31.654Z,15.88
2019-04-30T18:00:29.598Z,15.78
2019-04-30T18:03:34.794Z,15.52
2019-04-30T18:06:40.061Z,15.32
2019-04-30T18:09:46.567Z,15.14
2019-04-30T18:12:51.810Z,14.94
2019-04-30T18:16:00.240Z,14.81
2019-04-30T18:19:18.604Z,14.68
2019-04-30T18:22:40.090Z,14.69
2019-04-30T18:25:53.629Z,14.83
2019-04-30T18:28:58.902Z,14.75
2019-04-30T18:32:04.094Z,14.85
2019-04-30T18:35:10.398Z,14.80
2019-04-30T18:38:17.746Z,14.65
2019-04-30T18:41:22.511Z,14.55
2019-04-30T18:44:31.478Z,14.29
2019-04-30T18:47:37.371Z,14.32
2019-04-30T18:50:43.391Z,14.08
2019-04-30T18:53:50.018Z,13.97
2019-04-30T18:56:55.232Z,13.74
2019-04-30T19:00:01.484Z,13.46
2019-04-30T19:03:11.559Z,13.45
2019-04-30T19:06:26.274Z,13.45
2019-04-30T19:09:40.021Z,13.37
2019-04-30T19:13:05.314Z,13.16
2019-04-30T19:16:42.293Z,13.04
2019-04-30T19:20:22.594Z,13.06
2019-04-30T19:23:33.231Z,12.76
2019-04-30T19:26:38.888Z,12.95
2019-04-30T19:29:46.335Z,12.84
2019-04-30T19:32:51.854Z,12.81
2019-04-30T19:35:58.886Z,12.72
2019-04-30T19:39:08.632Z,12.86
2019-04-30T19:42:15.901Z,12.72
2019-04-30T19:45:25.675Z,12.60
2019-04-30T19:48:32.169Z,12.42
2019-04-30T19:51:37.739Z,12.30
2019-04-30T19:54:44.695Z,12.40
2019-04-30T19:57:51.133Z,12.23
2019-04-30T20:01:03.547Z,12.17
2019-04-30T20:04:09.782Z,12.19
2019-04-30T20:07:19.427Z,12.01
2019-04-30T20:10:24.919Z,11.98
2019-04-30T20:13:37.070Z,11.91
2019-04-30T20:16:43.065Z,12.01
2019-04-30T20:19:48.960Z,11.90
2019-04-30T20:22:58.234Z,11.82
2019-04-30T20:26:04.024Z,11.63
2019-04-30T20:29:13.348Z,11.54
2019-04-30T20:32:20.834Z,11.48
2019-04-30T20:35:26.920Z,11.46
2019-04-30T20:38:52.957Z,11.47
2019-04-30T20:42:00.413Z,11.64
2019-04-30T20:45:09.634Z,11.73
2019-04-30T20:48:16.522Z,11.76
2019-04-30T20:51:23.707Z,11.72
2019-04-30T20:54:29.267Z,11.76
2019-04-30T20:57:39.495Z,11.75
2019-04-30T21:00:45.304Z,11.70
2019-04-30T21:03:56.613Z,11.67
2019-04-30T21:06:59.491Z,11.58
2019-04-30T21:10:10.174Z,11.56
2019-04-30T21:13:15.304Z,11.58
2019-04-30T21:16:20.478Z,11.55
2019-04-30T21:19:25.929Z,11.40
2019-04-30T21:22:31.115Z,11.18
2019-04-30T21:25:36.328Z,10.93
2019-04-30T21:28:43.242Z,10.94
2019-04-30T21:32:12.833Z,10.81
2019-04-30T21:35:38.907Z,10.78
2019-04-30T21:38:45.147Z,10.75
2019-04-30T21:41:51.125Z,10.74
2019-04-30T21:44:56.499Z,10.67
2019-04-30T21:48:04.028Z,10.57
2019-04-30T21:51:09.587Z,10.45
2019-04-30T21:54:14.971Z,10.41
2019-04-30T21:57:20.217Z,10.26
2019-04-30T22:00:49.423Z,10.10
2019-04-30T22:03:56.049Z,10.21
2019-04-30T22:07:01.277Z,10.15
2019-04-30T22:10:06.939Z,10.04
2019-04-30T22:13:12.180Z,9.94
2019-04-30T22:16:20.074Z,9.67
2019-04-30T22:19:24.274Z,9.55
2019-04-30T22:22:29.497Z,9.61
2019-04-30T22:25:36.743Z,9.67
2019-04-30T22:28:42.015Z,9.56
2019-04-30T22:31:49.352Z,9.69
2019-04-30T22:34:56.834Z,9.70
2019-04-30T22:38:03.942Z,9.80
2019-04-30T22:41:09.138Z,9.88
2019-04-30T22:44:14.291Z,9.85
2019-04-30T22:47:19.467Z,9.86
2019-04-30T22:50:24.657Z,9.86
2019-04-30T22:53:29.865Z,9.84
2019-04-30T22:59:49.806Z,9.66
2019-04-30T23:02:54.006Z,9.63
2019-04-30T23:05:59.308Z,9.44
2019-04-30T23:09:06.207Z,9.29
2019-04-30T23:12:16.778Z,9.26
2019-04-30T23:15:21.363Z,9.22
2019-04-30T23:18:26.657Z,9.29
2019-04-30T23:21:31.857Z,9.39
2019-04-30T23:24:37.007Z,9.50
2019-04-30T23:27:42.141Z,9.50
2019-04-30T23:30:49.531Z,9.61
2019-04-30T23:33:54.759Z,9.64
2019-04-30T23:37:01.107Z,9.66
2019-04-30T23:40:27.412Z,9.70
2019-04-30T23:43:32.539Z,9.69
2019-04-30T23:46:37.717Z,9.66
2019-04-30T23:49:42.991Z,9.69
2019-04-30T23:52:48.217Z,9.67
2019-04-30T23:55:53.483Z,9.66
2019-04-30T23:58:58.653Z,9.62
